sensor_id;sensor_type;location;lat;lon;timestamp;temperature;humidity
12111;DHT22;6119;52.372;8.990;2022-10-22T00:00:05;14.40;99.90
12111;DHT22;6119;52.372;8.990;2022-10-22T00:02:52;14.40;99.90
12111;DHT22;6119;52.372;8.990;2022-10-22T00:05:39;14.30;99.90
12111;DHT22;6119;52.372;8.990;2022-10-22T00:08:25;14.30;99.90
12111;DHT22;6119;52.372;8.990;2022-10-22T00:11:16;14.30;99.90
12111;DHT22;6119;52.372;8.990;2022-10-22T00:14:03;14.20;99.90
12111;DHT22;6119;52.372;8.990;2022-10-22T00:16:50;14.20;99.90
12111;DHT22;6119;52.372;8.990;2022-10-22T00:19:37;14.20;99.90
12111;DHT22;6119;52.372;8.990;2022-10-22T00:22:23;14.20;99.90
12111;DHT22;6119;52.372;8.990;2022-10-22T00:25:10;14.10;99.90
12111;DHT22;6119;52.372;8.990;2022-10-22T00:27:58;14.20;99.90
12111;DHT22;6119;52.372;8.990;2022-10-22T00:30:45;14.30;99.90
12111;DHT22;6119;52.372;8.990;2022-10-22T00:33:32;14.20;99.90
12111;DHT22;6119;52.372;8.990;2022-10-22T00:36:18;14.20;99.90
12111;DHT22;6119;52.372;8.990;2022-10-22T00:39:05;14.10;99.90
12111;DHT22;6119;52.372;8.990;2022-10-22T00:41:53;14.10;99.90
12111;DHT22;6119;52.372;8.990;2022-10-22T00:45:16;14.10;99.90
12111;DHT22;6119;52.372;8.990;2022-10-22T00:48:04;14.20;99.90
12111;DHT22;6119;52.372;8.990;2022-10-22T00:50:55;14.30;99.90
12111;DHT22;6119;52.372;8.990;2022-10-22T00:53:45;14.30;99.90
12111;DHT22;6119;52.372;8.990;2022-10-22T00:56:33;14.30;99.90
12111;DHT22;6119;52.372;8.990;2022-10-22T00:59:19;14.30;99.90
12111;DHT22;6119;52.372;8.990;2022-10-22T01:02:07;14.20;99.90
12111;DHT22;6119;52.372;8.990;2022-10-22T01:04:54;14.20;99.90
12111;DHT22;6119;52.372;8.990;2022-10-22T01:07:43;14.10;99.90
12111;DHT22;6119;52.372;8.990;2022-10-22T01:10:39;14.10;99.90
12111;DHT22;6119;52.372;8.990;2022-10-22T01:13:34;14.10;99.90
12111;DHT22;6119;52.372;8.990;2022-10-22T01:16:31;14.20;99.90
12111;DHT22;6119;52.372;8.990;2022-10-22T01:19:35;14.30;99.90
12111;DHT22;6119;52.372;8.990;2022-10-22T01:22:29;14.30;99.90
12111;DHT22;6119;52.372;8.990;2022-10-22T01:25:21;14.30;99.90
12111;DHT22;6119;52.372;8.990;2022-10-22T01:28:22;14.30;99.90
12111;DHT22;6119;52.372;8.990;2022-10-22T01:31:16;14.30;99.90
12111;DHT22;6119;52.372;8.990;2022-10-22T01:34:04;14.40;99.90
12111;DHT22;6119;52.372;8.990;2022-10-22T01:36:52;14.50;99.90
12111;DHT22;6119;52.372;8.990;2022-10-22T01:39:41;14.50;99.90
12111;DHT22;6119;52.372;8.990;2022-10-22T01:42:29;14.50;99.90
12111;DHT22;6119;52.372;8.990;2022-10-22T01:45:15;14.50;99.90
12111;DHT22;6119;52.372;8.990;2022-10-22T01:48:21;14.50;99.90
12111;DHT22;6119;52.372;8.990;2022-10-22T01:51:28;14.50;99.90
12111;DHT22;6119;52.372;8.990;2022-10-22T01:54:24;14.50;99.90
12111;DHT22;6119;52.372;8.990;2022-10-22T01:57:17;14.50;99.90
12111;DHT22;6119;52.372;8.990;2022-10-22T02:00:09;14.50;99.90
12111;DHT22;6119;52.372;8.990;2022-10-22T02:03:00;14.50;99.90
12111;DHT22;6119;52.372;8.990;2022-10-22T02:05:53;14.60;99.90
12111;DHT22;6119;52.372;8.990;2022-10-22T02:08:41;14.60;99.90
12111;DHT22;6119;52.372;8.990;2022-10-22T02:11:28;14.60;99.90
12111;DHT22;6119;52.372;8.990;2022-10-22T02:14:16;14.60;99.90
12111;DHT22;6119;52.372;8.990;2022-10-22T02:17:05;14.60;99.90
12111;DHT22;6119;52.372;8.990;2022-10-22T02:19:55;14.60;99.90
12111;DHT22;6119;52.372;8.990;2022-10-22T02:22:44;14.60;99.90
12111;DHT22;6119;52.372;8.990;2022-10-22T02:25:32;14.50;99.90
12111;DHT22;6119;52.372;8.990;2022-10-22T02:28:24;14.60;99.90
12111;DHT22;6119;52.372;8.990;2022-10-22T02:31:14;14.50;99.90
12111;DHT22;6119;52.372;8.990;2022-10-22T02:34:07;14.50;99.90
12111;DHT22;6119;52.372;8.990;2022-10-22T02:36:56;14.50;99.90
12111;DHT22;6119;52.372;8.990;2022-10-22T02:39:45;14.50;99.90
12111;DHT22;6119;52.372;8.990;2022-10-22T02:42:32;14.60;99.90
12111;DHT22;6119;52.372;8.990;2022-10-22T02:45:20;14.60;99.90
12111;DHT22;6119;52.372;8.990;2022-10-22T02:48:06;14.60;99.90
12111;DHT22;6119;52.372;8.990;2022-10-22T02:50:54;14.60;99.90
12111;DHT22;6119;52.372;8.990;2022-10-22T02:53:40;14.50;99.90
12111;DHT22;6119;52.372;8.990;2022-10-22T02:56:28;14.30;99.90
12111;DHT22;6119;52.372;8.990;2022-10-22T02:59:14;14.30;99.90
12111;DHT22;6119;52.372;8.990;2022-10-22T03:02:01;14.20;99.90
12111;DHT22;6119;52.372;8.990;2022-10-22T03:04:47;14.20;99.90
12111;DHT22;6119;52.372;8.990;2022-10-22T03:07:34;14.10;99.90
12111;DHT22;6119;52.372;8.990;2022-10-22T03:10:20;14.10;99.90
12111;DHT22;6119;52.372;8.990;2022-10-22T03:13:08;14.00;99.90
12111;DHT22;6119;52.372;8.990;2022-10-22T03:15:55;14.00;99.90
12111;DHT22;6119;52.372;8.990;2022-10-22T03:18:41;13.90;99.90
12111;DHT22;6119;52.372;8.990;2022-10-22T03:21:32;13.80;99.90
12111;DHT22;6119;52.372;8.990;2022-10-22T03:24:23;13.80;99.90
12111;DHT22;6119;52.372;8.990;2022-10-22T03:27:12;13.80;99.90
12111;DHT22;6119;52.372;8.990;2022-10-22T03:30:02;13.80;99.90
12111;DHT22;6119;52.372;8.990;2022-10-22T03:32:48;13.80;99.90
12111;DHT22;6119;52.372;8.990;2022-10-22T03:35:39;13.80;99.90
12111;DHT22;6119;52.372;8.990;2022-10-22T03:38:28;13.80;99.90
12111;DHT22;6119;52.372;8.990;2022-10-22T03:41:15;13.80;99.90
12111;DHT22;6119;52.372;8.990;2022-10-22T03:44:02;13.80;99.90
12111;DHT22;6119;52.372;8.990;2022-10-22T03:46:50;13.90;99.90
12111;DHT22;6119;52.372;8.990;2022-10-22T03:49:37;14.00;99.90
12111;DHT22;6119;52.372;8.990;2022-10-22T03:52:24;14.00;99.90
12111;DHT22;6119;52.372;8.990;2022-10-22T03:55:10;14.00;99.90
12111;DHT22;6119;52.372;8.990;2022-10-22T03:57:57;13.90;99.90
12111;DHT22;6119;52.372;8.990;2022-10-22T04:00:43;14.00;99.90
12111;DHT22;6119;52.372;8.990;2022-10-22T04:03:31;14.00;99.90
12111;DHT22;6119;52.372;8.990;2022-10-22T04:06:18;14.00;99.90
12111;DHT22;6119;52.372;8.990;2022-10-22T04:09:04;14.00;99.90
12111;DHT22;6119;52.372;8.990;2022-10-22T04:11:51;13.90;99.90
12111;DHT22;6119;52.372;8.990;2022-10-22T04:14:38;13.90;99.90
12111;DHT22;6119;52.372;8.990;2022-10-22T04:17:24;13.90;99.90
12111;DHT22;6119;52.372;8.990;2022-10-22T04:20:12;13.90;99.90
12111;DHT22;6119;52.372;8.990;2022-10-22T04:22:58;13.90;99.90
12111;DHT22;6119;52.372;8.990;2022-10-22T04:25:45;13.80;99.90
12111;DHT22;6119;52.372;8.990;2022-10-22T04:28:31;13.90;99.90
12111;DHT22;6119;52.372;8.990;2022-10-22T04:31:19;13.90;99.90
12111;DHT22;6119;52.372;8.990;2022-10-22T04:34:07;14.00;99.90
12111;DHT22;6119;52.372;8.990;2022-10-22T04:36:55;13.90;99.90
12111;DHT22;6119;52.372;8.990;2022-10-22T04:39:42;13.90;99.90
12111;DHT22;6119;52.372;8.990;2022-10-22T04:42:28;14.00;99.90
12111;DHT22;6119;52.372;8.990;2022-10-22T04:45:15;13.90;99.90
12111;DHT22;6119;52.372;8.990;2022-10-22T04:48:02;13.80;99.90
12111;DHT22;6119;52.372;8.990;2022-10-22T04:50:48;13.80;99.90
12111;DHT22;6119;52.372;8.990;2022-10-22T04:53:37;13.90;99.90
12111;DHT22;6119;52.372;8.990;2022-10-22T04:56:25;13.80;99.90
12111;DHT22;6119;52.372;8.990;2022-10-22T04:59:12;13.70;99.90
12111;DHT22;6119;52.372;8.990;2022-10-22T05:01:59;13.70;99.90
12111;DHT22;6119;52.372;8.990;2022-10-22T05:04:45;13.60;99.90
12111;DHT22;6119;52.372;8.990;2022-10-22T05:07:32;13.60;99.90
12111;DHT22;6119;52.372;8.990;2022-10-22T05:10:20;13.60;99.90
12111;DHT22;6119;52.372;8.990;2022-10-22T05:13:06;13.50;99.90
12111;DHT22;6119;52.372;8.990;2022-10-22T05:15:53;13.40;99.90
12111;DHT22;6119;52.372;8.990;2022-10-22T05:18:41;13.30;99.90
12111;DHT22;6119;52.372;8.990;2022-10-22T05:21:28;13.30;99.90
12111;DHT22;6119;52.372;8.990;2022-10-22T05:24:15;13.30;99.90
12111;DHT22;6119;52.372;8.990;2022-10-22T05:27:03;13.20;99.90
12111;DHT22;6119;52.372;8.990;2022-10-22T05:29:49;13.10;99.90
12111;DHT22;6119;52.372;8.990;2022-10-22T05:32:36;13.10;99.90
12111;DHT22;6119;52.372;8.990;2022-10-22T05:35:22;13.10;99.90
12111;DHT22;6119;52.372;8.990;2022-10-22T05:38:09;13.10;99.90
12111;DHT22;6119;52.372;8.990;2022-10-22T05:41:00;13.10;99.90
12111;DHT22;6119;52.372;8.990;2022-10-22T05:43:48;13.00;99.90
12111;DHT22;6119;52.372;8.990;2022-10-22T05:46:35;13.00;99.90
12111;DHT22;6119;52.372;8.990;2022-10-22T05:49:22;12.90;99.90
12111;DHT22;6119;52.372;8.990;2022-10-22T05:52:09;12.90;99.90
12111;DHT22;6119;52.372;8.990;2022-10-22T05:54:56;12.90;99.90
12111;DHT22;6119;52.372;8.990;2022-10-22T05:57:42;12.80;99.90
12111;DHT22;6119;52.372;8.990;2022-10-22T06:00:30;12.90;99.90
12111;DHT22;6119;52.372;8.990;2022-10-22T06:03:18;12.80;99.90
12111;DHT22;6119;52.372;8.990;2022-10-22T06:06:19;12.80;99.90
12111;DHT22;6119;52.372;8.990;2022-10-22T06:09:12;12.80;99.90
12111;DHT22;6119;52.372;8.990;2022-10-22T06:12:00;12.80;99.90
12111;DHT22;6119;52.372;8.990;2022-10-22T06:14:46;12.80;99.90
12111;DHT22;6119;52.372;8.990;2022-10-22T06:17:34;12.80;99.90
12111;DHT22;6119;52.372;8.990;2022-10-22T06:20:21;12.70;99.90
12111;DHT22;6119;52.372;8.990;2022-10-22T06:23:07;12.80;99.90
12111;DHT22;6119;52.372;8.990;2022-10-22T06:25:57;12.80;99.90
12111;DHT22;6119;52.372;8.990;2022-10-22T06:28:44;12.90;99.90
12111;DHT22;6119;52.372;8.990;2022-10-22T06:31:30;12.90;99.90
12111;DHT22;6119;52.372;8.990;2022-10-22T06:34:22;13.00;99.90
12111;DHT22;6119;52.372;8.990;2022-10-22T06:37:08;13.00;99.90
12111;DHT22;6119;52.372;8.990;2022-10-22T06:39:56;13.10;99.90
12111;DHT22;6119;52.372;8.990;2022-10-22T06:42:42;13.30;99.90
12111;DHT22;6119;52.372;8.990;2022-10-22T06:45:29;13.40;99.90
12111;DHT22;6119;52.372;8.990;2022-10-22T06:48:15;13.40;99.90
12111;DHT22;6119;52.372;8.990;2022-10-22T06:51:04;13.40;99.90
12111;DHT22;6119;52.372;8.990;2022-10-22T06:53:53;13.50;99.90
12111;DHT22;6119;52.372;8.990;2022-10-22T06:56:40;13.60;99.90
12111;DHT22;6119;52.372;8.990;2022-10-22T06:59:26;13.60;99.90
12111;DHT22;6119;52.372;8.990;2022-10-22T07:02:13;13.60;99.90
12111;DHT22;6119;52.372;8.990;2022-10-22T07:04:59;13.60;99.90
12111;DHT22;6119;52.372;8.990;2022-10-22T07:07:47;13.70;99.90
12111;DHT22;6119;52.372;8.990;2022-10-22T07:10:34;13.80;99.90
12111;DHT22;6119;52.372;8.990;2022-10-22T07:13:20;13.80;99.90
12111;DHT22;6119;52.372;8.990;2022-10-22T07:16:08;13.90;99.90
12111;DHT22;6119;52.372;8.990;2022-10-22T07:18:55;14.00;99.90
12111;DHT22;6119;52.372;8.990;2022-10-22T07:21:41;14.00;99.90
12111;DHT22;6119;52.372;8.990;2022-10-22T07:24:29;14.10;99.90
12111;DHT22;6119;52.372;8.990;2022-10-22T07:27:16;14.20;99.90
12111;DHT22;6119;52.372;8.990;2022-10-22T07:30:03;14.30;99.90
12111;DHT22;6119;52.372;8.990;2022-10-22T07:32:49;14.30;99.90
12111;DHT22;6119;52.372;8.990;2022-10-22T07:35:37;14.30;99.90
12111;DHT22;6119;52.372;8.990;2022-10-22T07:38:24;14.50;99.90
12111;DHT22;6119;52.372;8.990;2022-10-22T07:41:12;14.50;99.90
12111;DHT22;6119;52.372;8.990;2022-10-22T07:43:59;14.50;99.90
12111;DHT22;6119;52.372;8.990;2022-10-22T07:46:45;14.50;99.90
12111;DHT22;6119;52.372;8.990;2022-10-22T07:49:33;14.50;99.90
12111;DHT22;6119;52.372;8.990;2022-10-22T07:52:19;14.60;99.90
12111;DHT22;6119;52.372;8.990;2022-10-22T07:55:07;14.60;99.90
12111;DHT22;6119;52.372;8.990;2022-10-22T07:57:55;14.70;99.90
12111;DHT22;6119;52.372;8.990;2022-10-22T08:00:41;14.90;99.90
12111;DHT22;6119;52.372;8.990;2022-10-22T08:03:29;14.90;99.90
12111;DHT22;6119;52.372;8.990;2022-10-22T08:06:15;14.80;99.90
12111;DHT22;6119;52.372;8.990;2022-10-22T08:09:02;14.90;99.90
12111;DHT22;6119;52.372;8.990;2022-10-22T08:11:49;15.00;99.90
12111;DHT22;6119;52.372;8.990;2022-10-22T08:14:37;15.00;99.90
12111;DHT22;6119;52.372;8.990;2022-10-22T08:17:24;15.20;99.90
12111;DHT22;6119;52.372;8.990;2022-10-22T08:20:10;15.20;99.90
12111;DHT22;6119;52.372;8.990;2022-10-22T08:22:57;15.30;99.90
12111;DHT22;6119;52.372;8.990;2022-10-22T08:25:44;15.40;99.90
12111;DHT22;6119;52.372;8.990;2022-10-22T08:28:30;15.50;99.90
12111;DHT22;6119;52.372;8.990;2022-10-22T08:31:23;15.50;99.90
12111;DHT22;6119;52.372;8.990;2022-10-22T08:34:09;15.70;99.90
12111;DHT22;6119;52.372;8.990;2022-10-22T08:36:56;15.80;99.90
12111;DHT22;6119;52.372;8.990;2022-10-22T08:39:42;15.80;99.90
12111;DHT22;6119;52.372;8.990;2022-10-22T08:42:49;15.90;99.90
12111;DHT22;6119;52.372;8.990;2022-10-22T08:45:43;16.00;99.90
12111;DHT22;6119;52.372;8.990;2022-10-22T08:48:42;16.10;99.90
12111;DHT22;6119;52.372;8.990;2022-10-22T08:51:31;16.30;99.90
12111;DHT22;6119;52.372;8.990;2022-10-22T08:54:26;16.30;99.90
12111;DHT22;6119;52.372;8.990;2022-10-22T08:57:23;16.50;99.90
12111;DHT22;6119;52.372;8.990;2022-10-22T09:00:22;16.60;99.90
12111;DHT22;6119;52.372;8.990;2022-10-22T09:03:25;16.70;99.90
12111;DHT22;6119;52.372;8.990;2022-10-22T09:06:18;16.80;99.90
12111;DHT22;6119;52.372;8.990;2022-10-22T09:09:11;17.00;99.90
12111;DHT22;6119;52.372;8.990;2022-10-22T09:12:02;17.00;99.90
12111;DHT22;6119;52.372;8.990;2022-10-22T09:14:49;17.00;99.90
12111;DHT22;6119;52.372;8.990;2022-10-22T09:17:44;17.00;99.90
12111;DHT22;6119;52.372;8.990;2022-10-22T09:20:39;17.00;99.90
12111;DHT22;6119;52.372;8.990;2022-10-22T09:23:35;17.00;99.90
12111;DHT22;6119;52.372;8.990;2022-10-22T09:26:25;17.00;99.90
12111;DHT22;6119;52.372;8.990;2022-10-22T09:29:16;17.00;99.90
12111;DHT22;6119;52.372;8.990;2022-10-22T09:32:03;17.10;99.90
12111;DHT22;6119;52.372;8.990;2022-10-22T09:34:55;17.10;99.90
12111;DHT22;6119;52.372;8.990;2022-10-22T09:37:47;17.30;99.90
12111;DHT22;6119;52.372;8.990;2022-10-22T09:40:43;17.50;99.90
12111;DHT22;6119;52.372;8.990;2022-10-22T09:43:30;17.60;99.90
12111;DHT22;6119;52.372;8.990;2022-10-22T09:46:19;17.70;99.90
12111;DHT22;6119;52.372;8.990;2022-10-22T09:49:11;17.70;99.90
12111;DHT22;6119;52.372;8.990;2022-10-22T09:51:59;17.80;99.90
12111;DHT22;6119;52.372;8.990;2022-10-22T09:54:51;17.90;99.90
12111;DHT22;6119;52.372;8.990;2022-10-22T09:57:40;17.90;99.90
12111;DHT22;6119;52.372;8.990;2022-10-22T10:00:29;17.90;99.90
12111;DHT22;6119;52.372;8.990;2022-10-22T10:03:17;17.90;99.90
12111;DHT22;6119;52.372;8.990;2022-10-22T10:06:05;17.80;99.90
12111;DHT22;6119;52.372;8.990;2022-10-22T10:08:52;17.80;99.90
12111;DHT22;6119;52.372;8.990;2022-10-22T10:11:42;17.90;99.90
12111;DHT22;6119;52.372;8.990;2022-10-22T10:14:38;18.00;99.90
12111;DHT22;6119;52.372;8.990;2022-10-22T10:17:32;18.10;99.90
12111;DHT22;6119;52.372;8.990;2022-10-22T10:20:29;18.10;99.90
12111;DHT22;6119;52.372;8.990;2022-10-22T10:23:23;18.20;99.90
12111;DHT22;6119;52.372;8.990;2022-10-22T10:26:18;18.30;99.90
12111;DHT22;6119;52.372;8.990;2022-10-22T10:29:25;18.50;99.90
12111;DHT22;6119;52.372;8.990;2022-10-22T10:32:52;18.60;99.90
12111;DHT22;6119;52.372;8.990;2022-10-22T10:35:45;18.70;99.90
12111;DHT22;6119;52.372;8.990;2022-10-22T10:38:43;18.80;99.90
12111;DHT22;6119;52.372;8.990;2022-10-22T10:41:42;18.70;99.90
12111;DHT22;6119;52.372;8.990;2022-10-22T10:44:45;18.60;99.90
12111;DHT22;6119;52.372;8.990;2022-10-22T10:47:59;18.40;99.90
12111;DHT22;6119;52.372;8.990;2022-10-22T10:50:55;18.20;99.90
12111;DHT22;6119;52.372;8.990;2022-10-22T10:54:03;18.20;99.90
12111;DHT22;6119;52.372;8.990;2022-10-22T10:56:56;18.20;99.90
12111;DHT22;6119;52.372;8.990;2022-10-22T10:59:52;18.10;99.90
12111;DHT22;6119;52.372;8.990;2022-10-22T11:06:14;18.20;99.90
12111;DHT22;6119;52.372;8.990;2022-10-22T11:09:14;18.30;99.90
12111;DHT22;6119;52.372;8.990;2022-10-22T11:12:08;18.40;99.90
12111;DHT22;6119;52.372;8.990;2022-10-22T11:15:00;18.40;99.90
12111;DHT22;6119;52.372;8.990;2022-10-22T11:17:47;18.60;99.90
12111;DHT22;6119;52.372;8.990;2022-10-22T11:20:43;18.50;99.90
12111;DHT22;6119;52.372;8.990;2022-10-22T11:23:37;18.30;99.90
12111;DHT22;6119;52.372;8.990;2022-10-22T11:26:34;18.40;99.90
12111;DHT22;6119;52.372;8.990;2022-10-22T11:29:25;18.40;99.90
12111;DHT22;6119;52.372;8.990;2022-10-22T11:32:19;18.40;99.90
12111;DHT22;6119;52.372;8.990;2022-10-22T11:35:08;18.40;99.90
12111;DHT22;6119;52.372;8.990;2022-10-22T11:37:57;18.50;99.90
12111;DHT22;6119;52.372;8.990;2022-10-22T11:40:53;18.80;99.90
12111;DHT22;6119;52.372;8.990;2022-10-22T11:43:56;18.80;99.90
12111;DHT22;6119;52.372;8.990;2022-10-22T11:46:46;18.90;99.90
12111;DHT22;6119;52.372;8.990;2022-10-22T11:49:43;19.00;99.90
12111;DHT22;6119;52.372;8.990;2022-10-22T11:52:40;19.20;99.90
12111;DHT22;6119;52.372;8.990;2022-10-22T11:55:43;19.00;99.90
12111;DHT22;6119;52.372;8.990;2022-10-22T11:58:38;19.10;99.90
12111;DHT22;6119;52.372;8.990;2022-10-22T12:01:28;19.00;99.90
12111;DHT22;6119;52.372;8.990;2022-10-22T12:04:18;19.00;99.90
12111;DHT22;6119;52.372;8.990;2022-10-22T12:07:29;19.10;99.90
12111;DHT22;6119;52.372;8.990;2022-10-22T12:10:18;19.00;99.90
12111;DHT22;6119;52.372;8.990;2022-10-22T12:13:12;19.00;99.90
12111;DHT22;6119;52.372;8.990;2022-10-22T12:16:03;19.00;99.90
12111;DHT22;6119;52.372;8.990;2022-10-22T12:18:56;19.00;99.90
12111;DHT22;6119;52.372;8.990;2022-10-22T12:21:48;18.90;99.90
12111;DHT22;6119;52.372;8.990;2022-10-22T12:24:37;18.80;99.90
12111;DHT22;6119;52.372;8.990;2022-10-22T12:27:26;18.80;99.90
12111;DHT22;6119;52.372;8.990;2022-10-22T12:30:19;18.80;99.90
12111;DHT22;6119;52.372;8.990;2022-10-22T12:33:18;18.90;99.90
12111;DHT22;6119;52.372;8.990;2022-10-22T12:36:05;19.00;99.90
12111;DHT22;6119;52.372;8.990;2022-10-22T12:38:52;18.90;99.90
12111;DHT22;6119;52.372;8.990;2022-10-22T12:41:39;19.00;99.90
12111;DHT22;6119;52.372;8.990;2022-10-22T12:44:26;19.10;99.90
12111;DHT22;6119;52.372;8.990;2022-10-22T12:47:14;19.10;99.90
12111;DHT22;6119;52.372;8.990;2022-10-22T12:50:04;19.00;99.90
12111;DHT22;6119;52.372;8.990;2022-10-22T12:52:53;19.00;99.90
12111;DHT22;6119;52.372;8.990;2022-10-22T12:55:40;19.10;99.90
12111;DHT22;6119;52.372;8.990;2022-10-22T12:58:31;19.10;99.90
12111;DHT22;6119;52.372;8.990;2022-10-22T13:01:19;19.00;99.90
12111;DHT22;6119;52.372;8.990;2022-10-22T13:04:18;19.00;99.90
12111;DHT22;6119;52.372;8.990;2022-10-22T13:07:18;18.80;99.90
12111;DHT22;6119;52.372;8.990;2022-10-22T13:10:16;18.70;99.90
12111;DHT22;6119;52.372;8.990;2022-10-22T13:13:04;18.70;99.90
12111;DHT22;6119;52.372;8.990;2022-10-22T13:15:51;18.60;99.90
12111;DHT22;6119;52.372;8.990;2022-10-22T13:18:41;18.50;99.90
12111;DHT22;6119;52.372;8.990;2022-10-22T13:21:32;18.50;99.90
12111;DHT22;6119;52.372;8.990;2022-10-22T13:24:22;18.50;99.90
12111;DHT22;6119;52.372;8.990;2022-10-22T13:27:09;18.40;99.90
12111;DHT22;6119;52.372;8.990;2022-10-22T13:30:00;18.40;99.90
12111;DHT22;6119;52.372;8.990;2022-10-22T13:32:50;18.40;99.90
12111;DHT22;6119;52.372;8.990;2022-10-22T13:35:37;18.40;99.90
12111;DHT22;6119;52.372;8.990;2022-10-22T13:38:25;18.40;99.90
12111;DHT22;6119;52.372;8.990;2022-10-22T13:41:22;18.50;99.90
12111;DHT22;6119;52.372;8.990;2022-10-22T13:44:09;18.50;99.90
12111;DHT22;6119;52.372;8.990;2022-10-22T13:46:55;18.40;99.90
12111;DHT22;6119;52.372;8.990;2022-10-22T13:49:42;18.40;99.90
12111;DHT22;6119;52.372;8.990;2022-10-22T13:52:34;18.40;99.90
12111;DHT22;6119;52.372;8.990;2022-10-22T13:55:23;18.40;99.90
12111;DHT22;6119;52.372;8.990;2022-10-22T13:58:13;18.30;99.90
12111;DHT22;6119;52.372;8.990;2022-10-22T14:01:14;18.20;99.90
12111;DHT22;6119;52.372;8.990;2022-10-22T14:04:03;18.30;99.90
12111;DHT22;6119;52.372;8.990;2022-10-22T14:06:50;18.30;99.90
12111;DHT22;6119;52.372;8.990;2022-10-22T14:09:37;18.20;99.90
12111;DHT22;6119;52.372;8.990;2022-10-22T14:12:23;18.20;99.90
12111;DHT22;6119;52.372;8.990;2022-10-22T14:15:14;18.20;99.90
12111;DHT22;6119;52.372;8.990;2022-10-22T14:18:01;18.30;99.90
12111;DHT22;6119;52.372;8.990;2022-10-22T14:20:50;18.20;99.90
12111;DHT22;6119;52.372;8.990;2022-10-22T14:23:39;18.20;99.90
12111;DHT22;6119;52.372;8.990;2022-10-22T14:26:28;18.00;99.90
12111;DHT22;6119;52.372;8.990;2022-10-22T14:29:17;18.00;99.90
12111;DHT22;6119;52.372;8.990;2022-10-22T14:32:08;18.10;99.90
12111;DHT22;6119;52.372;8.990;2022-10-22T14:34:56;18.00;99.90
12111;DHT22;6119;52.372;8.990;2022-10-22T14:37:43;18.00;99.90
12111;DHT22;6119;52.372;8.990;2022-10-22T14:40:30;17.90;99.90
12111;DHT22;6119;52.372;8.990;2022-10-22T14:43:20;17.80;99.90
12111;DHT22;6119;52.372;8.990;2022-10-22T14:46:08;17.80;99.90
12111;DHT22;6119;52.372;8.990;2022-10-22T14:48:57;17.70;99.90
12111;DHT22;6119;52.372;8.990;2022-10-22T14:51:44;17.60;99.90
12111;DHT22;6119;52.372;8.990;2022-10-22T14:54:31;17.70;99.90
12111;DHT22;6119;52.372;8.990;2022-10-22T14:57:19;17.70;99.90
12111;DHT22;6119;52.372;8.990;2022-10-22T15:00:08;17.60;99.90
12111;DHT22;6119;52.372;8.990;2022-10-22T15:02:56;17.50;99.90
12111;DHT22;6119;52.372;8.990;2022-10-22T15:05:51;17.50;99.90
12111;DHT22;6119;52.372;8.990;2022-10-22T15:08:40;17.40;99.90
12111;DHT22;6119;52.372;8.990;2022-10-22T15:11:26;17.40;99.90
12111;DHT22;6119;52.372;8.990;2022-10-22T15:14:13;17.40;99.90
12111;DHT22;6119;52.372;8.990;2022-10-22T15:17:00;17.30;99.90
12111;DHT22;6119;52.372;8.990;2022-10-22T15:19:47;17.30;99.90
12111;DHT22;6119;52.372;8.990;2022-10-22T15:22:35;17.20;99.90
12111;DHT22;6119;52.372;8.990;2022-10-22T15:25:22;17.20;99.90
12111;DHT22;6119;52.372;8.990;2022-10-22T15:28:08;17.10;99.90
12111;DHT22;6119;52.372;8.990;2022-10-22T15:30:56;17.10;99.90
12111;DHT22;6119;52.372;8.990;2022-10-22T15:33:43;17.00;99.90
12111;DHT22;6119;52.372;8.990;2022-10-22T15:36:30;17.00;99.90
12111;DHT22;6119;52.372;8.990;2022-10-22T15:39:18;16.90;99.90
12111;DHT22;6119;52.372;8.990;2022-10-22T15:42:04;17.00;99.90
12111;DHT22;6119;52.372;8.990;2022-10-22T15:44:56;17.00;99.90
12111;DHT22;6119;52.372;8.990;2022-10-22T15:47:44;17.00;99.90
12111;DHT22;6119;52.372;8.990;2022-10-22T15:50:36;17.10;99.90
12111;DHT22;6119;52.372;8.990;2022-10-22T15:53:22;17.10;99.90
12111;DHT22;6119;52.372;8.990;2022-10-22T15:56:10;16.90;99.90
12111;DHT22;6119;52.372;8.990;2022-10-22T15:58:59;16.90;99.90
12111;DHT22;6119;52.372;8.990;2022-10-22T16:01:47;16.90;99.90
12111;DHT22;6119;52.372;8.990;2022-10-22T16:04:33;17.00;99.90
12111;DHT22;6119;52.372;8.990;2022-10-22T16:07:20;16.90;99.90
12111;DHT22;6119;52.372;8.990;2022-10-22T16:10:09;17.00;99.90
12111;DHT22;6119;52.372;8.990;2022-10-22T16:12:58;17.00;99.90
12111;DHT22;6119;52.372;8.990;2022-10-22T16:15:45;17.00;99.90
12111;DHT22;6119;52.372;8.990;2022-10-22T16:18:31;17.00;99.90
12111;DHT22;6119;52.372;8.990;2022-10-22T16:21:19;17.00;99.90
12111;DHT22;6119;52.372;8.990;2022-10-22T16:24:07;17.00;99.90
12111;DHT22;6119;52.372;8.990;2022-10-22T16:26:53;16.90;99.90
12111;DHT22;6119;52.372;8.990;2022-10-22T16:29:41;16.80;99.90
12111;DHT22;6119;52.372;8.990;2022-10-22T16:32:28;16.80;99.90
12111;DHT22;6119;52.372;8.990;2022-10-22T16:35:15;16.80;99.90
12111;DHT22;6119;52.372;8.990;2022-10-22T16:38:01;16.80;99.90
12111;DHT22;6119;52.372;8.990;2022-10-22T16:40:48;16.80;99.90
12111;DHT22;6119;52.372;8.990;2022-10-22T16:43:35;16.80;99.90
12111;DHT22;6119;52.372;8.990;2022-10-22T16:46:23;16.80;99.90
12111;DHT22;6119;52.372;8.990;2022-10-22T16:49:10;16.80;99.90
12111;DHT22;6119;52.372;8.990;2022-10-22T16:51:57;16.70;99.90
12111;DHT22;6119;52.372;8.990;2022-10-22T16:54:43;16.70;99.90
12111;DHT22;6119;52.372;8.990;2022-10-22T16:57:31;16.60;99.90
12111;DHT22;6119;52.372;8.990;2022-10-22T17:00:18;16.60;99.90
12111;DHT22;6119;52.372;8.990;2022-10-22T17:03:07;16.50;99.90
12111;DHT22;6119;52.372;8.990;2022-10-22T17:05:57;16.40;99.90
12111;DHT22;6119;52.372;8.990;2022-10-22T17:08:43;16.50;99.90
12111;DHT22;6119;52.372;8.990;2022-10-22T17:11:30;16.50;99.90
12111;DHT22;6119;52.372;8.990;2022-10-22T17:14:22;16.40;99.90
12111;DHT22;6119;52.372;8.990;2022-10-22T17:17:09;16.30;99.90
12111;DHT22;6119;52.372;8.990;2022-10-22T17:19:57;16.30;99.90
12111;DHT22;6119;52.372;8.990;2022-10-22T17:22:43;16.40;99.90
12111;DHT22;6119;52.372;8.990;2022-10-22T17:25:35;16.30;99.90
12111;DHT22;6119;52.372;8.990;2022-10-22T17:28:21;16.30;99.90
12111;DHT22;6119;52.372;8.990;2022-10-22T17:31:10;16.30;99.90
12111;DHT22;6119;52.372;8.990;2022-10-22T17:34:00;16.20;99.90
12111;DHT22;6119;52.372;8.990;2022-10-22T17:36:48;16.20;99.90
12111;DHT22;6119;52.372;8.990;2022-10-22T17:39:35;16.10;99.90
12111;DHT22;6119;52.372;8.990;2022-10-22T17:42:21;16.10;99.90
12111;DHT22;6119;52.372;8.990;2022-10-22T17:45:08;16.00;99.90
12111;DHT22;6119;52.372;8.990;2022-10-22T17:47:54;15.90;99.90
12111;DHT22;6119;52.372;8.990;2022-10-22T17:50:42;15.90;99.90
12111;DHT22;6119;52.372;8.990;2022-10-22T17:53:39;15.80;99.90
12111;DHT22;6119;52.372;8.990;2022-10-22T17:56:28;15.70;99.90
12111;DHT22;6119;52.372;8.990;2022-10-22T17:59:15;15.60;99.90
12111;DHT22;6119;52.372;8.990;2022-10-22T18:02:03;15.50;99.90
12111;DHT22;6119;52.372;8.990;2022-10-22T18:04:50;15.40;99.90
12111;DHT22;6119;52.372;8.990;2022-10-22T18:07:37;15.40;99.90
12111;DHT22;6119;52.372;8.990;2022-10-22T18:10:25;15.30;99.90